Time;durP1;ratioP1;P1;durP2;ratioP2;P2;SDS_P1;SDS_P2;PMS_P1;PMS_P2;Temp;Humidity;BMP_temperature;BMP_pressure;BME280_temperature;BME280_humidity;BME280_pressure;Samples;Min_cycle;Max_cycle;Signal;HPM_P1;HPM_P2
2022/02/11 00:07:59;;;;;;;9.50;5.60;;;;;;;4.70;80.52;99960.95;207585;1316;141120;-81
2022/02/11 00:13:03;;;;;;;9.60;5.50;;;;;;;4.63;80.85;99963.02;207746;1316;139973;-73
2022/02/11 00:18:11;;;;;;;7.90;5.50;;;;;;;4.58;80.86;99967.41;207491;1316;140695;-71
2022/02/11 00:23:20;;;;;;;7.60;5.50;;;;;;;4.57;81.09;99974.05;208318;1321;140107;-77
2022/02/11 00:34:00;;;;;;;7.10;4.60;;;;;;;4.51;81.14;99978.55;207811;1316;141954;-72
2022/02/11 00:39:25;;;;;;;7.00;5.70;;;;;;;4.48;81.11;99986.48;207157;1316;140712;-69
2022/02/11 01:05:38;;;;;;;5.00;4.10;;;;;;;4.15;81.45;99973.25;207652;1316;141647;-73
2022/02/11 01:10:44;;;;;;;6.70;3.80;;;;;;;4.08;81.67;99985.55;207633;1317;140914;-78
2022/02/11 01:15:57;;;;;;;8.60;5.10;;;;;;;4.03;81.43;99983.83;207328;1317;140623;-70
2022/02/11 01:21:09;;;;;;;4.10;3.40;;;;;;;4.00;81.58;99980.19;207096;1317;142093;-78
2022/02/11 01:26:33;;;;;;;6.40;3.70;;;;;;;3.96;81.70;99975.20;207443;1316;144006;-82
2022/02/11 01:37:04;;;;;;;4.20;3.80;;;;;;;3.97;81.85;99973.95;209069;1313;142899;-70
2022/02/11 02:24:49;;;;;;;6.10;4.60;;;;;;;4.10;81.84;99964.35;207707;1316;140833;-77
2022/02/11 02:57:54;;;;;;;5.90;3.40;;;;;;;4.35;82.21;99969.21;207737;1316;141944;-76
2022/02/11 04:56:26;;;;;;;14.50;11.00;;;;;;;4.51;82.33;99934.16;207689;1315;141528;-75
2022/02/11 05:01:35;;;;;;;15.00;10.60;;;;;;;4.51;82.19;99933.14;207438;1318;141086;-71
2022/02/11 05:06:48;;;;;;;22.80;11.40;;;;;;;4.51;82.28;99937.05;207590;1316;140929;-73
2022/02/11 05:11:58;;;;;;;17.70;12.30;;;;;;;4.45;82.21;99940.33;206951;1316;140824;-72
2022/02/11 05:17:03;;;;;;;19.90;12.40;;;;;;;4.43;82.42;99937.58;207688;1316;229929;-71
2022/02/11 05:22:07;;;;;;;13.60;10.70;;;;;;;4.38;82.36;99934.70;207810;1316;140100;-72
2022/02/11 05:27:10;;;;;;;15.30;9.50;;;;;;;4.35;82.61;99931.14;207239;1315;140127;-72
2022/02/11 05:32:34;;;;;;;13.50;9.80;;;;;;;4.43;82.56;99929.98;207498;1317;141363;-68
2022/02/11 05:37:37;;;;;;;22.20;10.40;;;;;;;4.48;82.47;99923.66;207896;1316;142726;-72
2022/02/11 05:42:49;;;;;;;14.60;10.80;;;;;;;4.50;82.53;99921.65;207102;1316;141230;-70
2022/02/11 05:47:55;;;;;;;16.30;11.90;;;;;;;4.49;82.62;99923.86;208024;1315;140496;-72
2022/02/11 05:53:11;;;;;;;17.00;10.30;;;;;;;4.45;82.43;99922.78;208056;1317;141344;-73
2022/02/11 05:58:17;;;;;;;17.10;9.40;;;;;;;4.40;82.64;99923.83;207527;1317;140677;-74
2022/02/11 06:03:20;;;;;;;15.90;9.80;;;;;;;4.40;82.61;99926.55;207967;1317;140518;-76
2022/02/11 06:08:42;;;;;;;17.30;10.70;;;;;;;4.44;82.68;99932.27;206999;1315;141628;-82
2022/02/11 06:13:48;;;;;;;14.60;9.90;;;;;;;4.48;82.81;99935.23;208399;1313;142253;-75
2022/02/11 06:18:51;;;;;;;14.60;10.40;;;;;;;4.51;82.78;99935.95;208734;1316;140081;-76
2022/02/11 06:23:58;;;;;;;20.50;10.20;;;;;;;4.53;82.62;99938.36;208901;1316;139803;-80
2022/02/11 06:29:01;;;;;;;15.10;11.40;;;;;;;4.55;82.57;99943.30;207615;1319;140562;-70
2022/02/11 06:34:05;;;;;;;14.10;10.00;;;;;;;4.59;82.49;99955.34;208155;1316;140673;-85
2022/02/11 06:39:10;;;;;;;19.10;11.60;;;;;;;4.62;82.72;99954.02;207047;1316;140105;-79
2022/02/11 06:44:33;;;;;;;17.30;9.50;;;;;;;4.62;82.73;99954.55;206879;1316;141276;-69
2022/02/11 06:49:39;;;;;;;19.10;10.30;;;;;;;4.60;82.63;99955.10;207853;1316;140521;-76
2022/02/11 06:55:00;;;;;;;18.40;9.30;;;;;;;4.62;82.52;99953.13;207181;1316;140366;-71
2022/02/11 07:00:07;;;;;;;16.50;10.10;;;;;;;4.64;82.85;99948.68;207181;1315;140624;-76
2022/02/11 07:05:10;;;;;;;12.80;10.60;;;;;;;4.62;82.71;99950.16;207189;1316;141355;-78
2022/02/11 07:10:13;;;;;;;18.40;11.00;;;;;;;4.64;82.74;99942.34;207589;1316;141343;-73
2022/02/11 07:15:18;;;;;;;12.70;10.00;;;;;;;4.64;83.02;99935.88;208051;1317;141515;-72
2022/02/11 07:20:30;;;;;;;16.70;10.20;;;;;;;4.67;82.99;99934.61;206767;1316;140992;-72
2022/02/11 07:25:35;;;;;;;14.30;10.30;;;;;;;4.73;83.16;99937.38;207175;1316;140321;-77
2022/02/11 07:30:37;;;;;;;17.50;10.00;;;;;;;4.77;83.14;99933.67;208088;1315;140851;-79
2022/02/11 07:35:45;;;;;;;16.40;10.90;;;;;;;4.82;82.99;99931.73;207691;1315;141615;-76
2022/02/11 07:40:49;;;;;;;21.60;11.70;;;;;;;4.82;82.89;99935.34;207431;1316;140506;-78
2022/02/11 07:46:08;;;;;;;;;;;;;;;;;;;;;
2022/02/11 07:51:21;;;;;;;20.40;11.40;;;;;;;4.89;83.06;99937.33;207612;1316;141257;-74
2022/02/11 07:56:32;;;;;;;18.00;11.70;;;;;;;4.94;82.86;99942.27;208880;1318;140783;-75
2022/02/11 08:02:15;;;;;;;17.20;10.90;;;;;;;4.98;82.88;99947.63;208200;1316;142100;-86
2022/02/11 08:07:20;;;;;;;13.50;10.60;;;;;;;5.00;82.98;99953.98;207927;1317;164231;-84
2022/02/11 08:12:34;;;;;;;;;;;;;;;;;;;;;
2022/02/11 08:17:48;;;;;;;18.00;12.40;;;;;;;4.86;82.55;99951.23;208489;1316;142448;-87
2022/02/11 08:23:00;;;;;;;15.40;10.90;;;;;;;4.97;82.73;99949.08;207328;1314;141889;-90
2022/02/11 08:28:15;;;;;;;13.50;10.20;;;;;;;5.07;82.74;99945.21;208608;1317;141646;-82
2022/02/11 08:33:25;;;;;;;12.30;9.50;;;;;;;5.10;82.64;99953.29;208460;1316;160016;-83
2022/02/11 08:38:32;;;;;;;12.90;9.40;;;;;;;5.03;82.44;99964.30;208205;1315;141609;-86
2022/02/11 08:43:34;;;;;;;11.40;8.00;;;;;;;4.98;82.31;99965.89;207826;1317;141406;-75
2022/02/11 08:48:36;;;;;;;7.20;5.90;;;;;;;4.95;82.36;99972.48;207511;1313;139998;-77
2022/02/11 08:53:44;;;;;;;8.00;6.30;;;;;;;4.88;82.15;99971.98;208106;1317;142702;-78
2022/02/11 08:58:47;;;;;;;9.50;6.00;;;;;;;4.79;81.97;99969.00;208060;1315;140959;-78
2022/02/11 09:03:49;;;;;;;4.80;4.20;;;;;;;4.64;81.75;99974.64;207432;1315;140880;-68
2022/02/11 09:08:52;;;;;;;4.10;3.70;;;;;;;4.53;81.77;99976.55;207458;1317;140809;-73
2022/02/11 09:14:00;;;;;;;4.60;4.20;;;;;;;4.48;81.58;99974.63;207281;1314;141903;-81
2022/02/11 09:19:03;;;;;;;7.50;5.10;;;;;;;4.35;81.62;99976.93;207208;1314;139821;-68
2022/02/11 09:24:06;;;;;;;7.50;5.10;;;;;;;4.29;81.62;99977.08;206947;1314;140835;-82
2022/02/11 09:29:17;;;;;;;10.30;6.30;;;;;;;4.30;81.63;99972.58;207203;1312;139653;-76
2022/02/11 09:34:37;;;;;;;10.20;8.00;;;;;;;4.33;82.13;99971.06;208294;1315;140287;-78
2022/02/11 09:39:48;;;;;;;5.70;5.10;;;;;;;4.28;81.82;99974.45;207743;1316;138871;-79
2022/02/11 09:45:00;;;;;;;6.40;4.70;;;;;;;4.23;81.80;99974.08;207587;1317;139592;-77
2022/02/11 09:50:28;;;;;;;7.80;5.40;;;;;;;4.24;82.03;99976.69;208073;1317;140976;-76
2022/02/11 09:55:40;;;;;;;10.40;8.70;;;;;;;4.26;81.83;99979.27;208256;1315;150284;-75
2022/02/11 10:00:55;;;;;;;5.60;4.00;;;;;;;4.28;81.99;99985.23;207372;1317;140326;-77
2022/02/11 10:06:04;;;;;;;4.80;3.50;;;;;;;4.18;81.40;99995.81;207735;1317;140441;-71
2022/02/11 10:11:30;;;;;;;3.70;2.50;;;;;;;4.06;81.48;99994.38;207739;1316;140884;-78
2022/02/11 10:16:40;;;;;;;8.60;7.70;;;;;;;3.95;81.39;99997.30;209004;1317;140841;-75
2022/02/11 10:21:51;;;;;;;5.10;4.60;;;;;;;3.83;81.32;99992.85;207990;1316;140227;-82
2022/02/11 10:26:57;;;;;;;5.50;3.60;;;;;;;3.75;81.43;99993.94;209318;1316;141148;-83
2022/02/11 10:32:05;;;;;;;3.40;3.10;;;;;;;3.71;81.24;99998.26;207930;1316;140891;-82
2022/02/11 10:37:14;;;;;;;5.80;3.70;;;;;;;3.66;81.25;99993.98;209158;1317;139910;-75
2022/02/11 10:42:45;;;;;;;4.30;3.10;;;;;;;3.62;81.25;99988.52;208384;1316;140437;-83
2022/02/11 10:47:50;;;;;;;4.10;3.40;;;;;;;3.53;80.84;99987.61;208442;1315;139947;-81
2022/02/11 10:52:52;;;;;;;4.70;3.40;;;;;;;3.41;80.89;99987.29;208213;1315;140088;-71
2022/02/11 10:57:58;;;;;;;4.90;3.40;;;;;;;3.31;80.84;99980.60;207902;1316;140997;-73
2022/02/11 11:03:04;;;;;;;4.30;3.40;;;;;;;3.19;80.79;99979.48;207320;1312;397789;-74
2022/02/11 11:08:10;;;;;;;5.00;3.50;;;;;;;3.10;80.64;99982.41;207090;1315;141855;-81
2022/02/11 11:13:16;;;;;;;4.10;3.70;;;;;;;3.02;80.61;99982.46;208960;1313;140747;-80
2022/02/11 11:18:48;;;;;;;5.60;3.90;;;;;;;2.94;80.55;99975.85;208102;1316;139982;-86
2022/02/11 11:24:00;;;;;;;5.00;4.30;;;;;;;2.86;80.91;99971.34;207085;1315;139580;-79
2022/02/11 11:29:12;;;;;;;7.10;6.00;;;;;;;2.81;80.57;99973.73;207827;1316;141063;-80
2022/02/11 11:34:17;;;;;;;5.50;4.80;;;;;;;2.81;80.99;99976.71;207933;1316;140453;-73
2022/02/11 11:39:20;;;;;;;10.70;8.80;;;;;;;2.81;80.80;99985.46;207798;1316;140231;-72
2022/02/11 11:44:24;;;;;;;14.30;9.70;;;;;;;2.77;81.16;99983.17;207723;1316;139490;-73
2022/02/11 11:50:09;;;;;;;10.40;7.90;;;;;;;2.75;80.89;99983.40;207018;1315;138896;-79
2022/02/11 11:55:21;;;;;;;10.30;6.20;;;;;;;2.65;80.72;99990.66;207731;1316;139566;-78
2022/02/11 12:00:44;;;;;;;5.90;5.40;;;;;;;2.59;80.93;99992.77;208312;1316;139870;-74
2022/02/11 12:06:04;;;;;;;7.40;6.00;;;;;;;2.58;80.99;99994.77;207012;1316;150926;-76
2022/02/11 12:11:15;;;;;;;7.40;5.20;;;;;;;2.57;81.08;99999.89;207640;1316;140758;-82
2022/02/11 12:16:20;;;;;;;10.90;8.30;;;;;;;2.56;80.94;100006.08;208162;1316;139934;-78
2022/02/11 12:21:22;;;;;;;10.40;8.00;;;;;;;2.51;81.06;100018.21;208675;1316;139902;-77
2022/02/11 12:32:45;;;;;;;10.80;7.30;;;;;;;2.51;81.30;100029.86;208629;1316;140243;-82
2022/02/11 12:37:48;;;;;;;7.00;5.80;;;;;;;2.50;80.97;100035.60;209066;1318;140654;-83
2022/02/11 12:42:55;;;;;;;8.70;5.60;;;;;;;2.50;80.95;100039.30;209440;1316;141502;-81
2022/02/11 12:48:01;;;;;;;12.80;7.10;;;;;;;2.45;80.95;100044.62;209287;1317;140056;-86
2022/02/11 12:53:18;;;;;;;11.80;6.60;;;;;;;2.35;80.97;100055.54;208998;1318;140624;-80
2022/02/11 12:58:25;;;;;;;18.60;10.30;;;;;;;2.26;80.83;100068.51;207509;1316;139952;-78
2022/02/11 13:03:31;;;;;;;17.10;10.60;;;;;;;2.18;80.71;100074.79;208336;1316;140168;-87
2022/02/11 13:08:33;;;;;;;14.80;10.30;;;;;;;2.16;81.10;100082.06;207050;1316;142526;-72
2022/02/11 13:13:40;;;;;;;11.10;7.30;;;;;;;2.14;80.80;100089.80;207161;1318;140684;-84
2022/02/11 13:18:43;;;;;;;8.60;7.20;;;;;;;2.11;81.32;100091.96;207680;1317;140338;-81
2022/02/11 13:23:55;;;;;;;7.50;6.60;;;;;;;2.05;81.26;100099.48;207657;1316;140343;-82
2022/02/11 13:28:58;;;;;;;9.50;5.90;;;;;;;1.94;81.07;100100.11;207296;1317;139559;-81
2022/02/11 13:34:16;;;;;;;8.60;7.10;;;;;;;1.87;81.46;100106.50;207756;1316;140711;-69
2022/02/11 13:39:52;;;;;;;7.60;5.60;;;;;;;1.83;81.48;100112.60;208173;1316;141499;-79
2022/02/11 13:45:08;;;;;;;8.30;6.20;;;;;;;1.83;81.35;100122.63;207106;1316;140798;-72
2022/02/11 13:50:10;;;;;;;8.90;5.70;;;;;;;1.86;81.54;100132.20;207643;1317;139078;-74
2022/02/11 13:55:16;;;;;;;9.10;5.60;;;;;;;1.83;81.66;100140.27;207133;1316;139398;-69
2022/02/11 14:00:36;;;;;;;9.80;6.40;;;;;;;1.75;81.91;100150.48;206962;1316;140446;-73
2022/02/11 14:05:46;;;;;;;8.60;6.10;;;;;;;1.71;81.62;100155.84;208355;1315;141007;-71
2022/02/11 14:11:11;;;;;;;10.90;7.00;;;;;;;1.72;82.04;100162.02;207280;1316;140077;-78
2022/02/11 14:16:14;;;;;;;7.90;6.00;;;;;;;1.72;81.99;100167.11;207966;1318;140935;-77
2022/02/11 14:21:17;;;;;;;9.30;4.40;;;;;;;1.66;81.95;100181.34;208154;1316;139958;-74
2022/02/11 14:26:20;;;;;;;6.10;3.20;;;;;;;1.64;81.98;100186.79;209316;1316;140500;-76
2022/02/11 14:31:41;;;;;;;;;;;;;;;;;;;;;
2022/02/11 14:36:44;;;;;;;4.30;3.40;;;;;;;1.58;81.89;100201.70;208737;1316;141825;-77
2022/02/11 14:41:51;;;;;;;173.40;55.70;;;;;;;1.59;81.95;100209.45;209392;1316;140605;-79
2022/02/11 14:46:59;;;;;;;11.70;10.70;;;;;;;1.62;82.09;100214.41;207941;1317;151913;-74
2022/02/11 14:52:05;;;;;;;5.60;4.60;;;;;;;1.67;82.15;100224.17;208944;1318;141320;-75
2022/02/11 14:57:11;;;;;;;3.90;3.00;;;;;;;1.67;82.22;100230.45;208892;1316;139867;-82
2022/02/11 15:02:24;;;;;;;9.50;6.40;;;;;;;1.63;82.11;100239.17;208684;1317;140465;-76
2022/02/11 15:07:38;;;;;;;6.30;5.20;;;;;;;1.58;82.09;100250.02;206829;1315;141917;-81
2022/02/11 15:12:45;;;;;;;14.40;8.30;;;;;;;1.57;82.30;100262.56;207325;1316;140155;-74
2022/02/11 15:17:52;;;;;;;10.50;7.30;;;;;;;1.59;82.41;100274.42;208073;1316;140554;-75
2022/02/11 15:23:02;;;;;;;13.60;10.90;;;;;;;1.59;82.66;100288.45;206953;1316;142078;-71
2022/02/11 15:28:04;;;;;;;13.10;9.60;;;;;;;1.57;82.45;100290.97;206811;1316;139912;-75
2022/02/11 15:33:16;;;;;;;13.10;7.80;;;;;;;1.47;82.38;100296.63;207314;1315;233999;-80
2022/02/11 15:38:19;;;;;;;14.50;10.30;;;;;;;1.44;82.74;100296.75;207801;1316;139984;-86
2022/02/11 15:43:25;;;;;;;10.40;7.90;;;;;;;1.41;82.56;100309.67;207762;1316;140485;-78
2022/02/11 15:48:27;;;;;;;12.00;9.10;;;;;;;1.35;82.34;100314.65;208716;1316;141811;-80
2022/02/11 15:53:31;;;;;;;11.20;8.30;;;;;;;1.32;82.75;100322.09;208413;1317;140708;-80
2022/02/11 15:58:34;;;;;;;10.80;8.50;;;;;;;1.33;82.90;100324.64;208084;1316;141706;-79
2022/02/11 16:03:37;;;;;;;11.90;8.60;;;;;;;1.36;82.83;100332.95;207241;1317;140984;-74
2022/02/11 16:08:43;;;;;;;13.40;8.90;;;;;;;1.36;82.92;100339.75;206835;1317;142872;-67
2022/02/11 16:13:49;;;;;;;17.30;11.60;;;;;;;1.37;83.08;100353.54;208044;1316;140370;-76
2022/02/11 16:18:52;;;;;;;15.90;10.50;;;;;;;1.37;82.99;100362.80;207531;1316;141915;-74
2022/02/11 16:23:57;;;;;;;21.00;11.40;;;;;;;1.36;82.96;100367.45;207869;1316;154150;-75
2022/02/11 16:29:20;;;;;;;10.40;7.30;;;;;;;1.32;82.98;100374.66;207999;1316;140761;-73
2022/02/11 16:34:33;;;;;;;15.00;8.70;;;;;;;1.28;83.18;100385.77;207443;1316;139765;-75
2022/02/11 16:39:40;;;;;;;15.30;12.70;;;;;;;1.24;83.15;100394.75;208280;1316;140302;-77
2022/02/11 16:44:45;;;;;;;12.30;9.40;;;;;;;1.23;83.18;100403.48;209567;1316;140352;-78
2022/02/11 16:49:49;;;;;;;11.50;8.70;;;;;;;1.21;82.97;100407.89;208072;1317;152216;-72
2022/02/11 16:54:55;;;;;;;15.90;11.30;;;;;;;1.21;83.02;100404.25;209519;1315;142299;-71
2022/02/11 16:59:58;;;;;;;10.20;7.70;;;;;;;1.21;83.26;100406.64;207694;1317;140189;-73
2022/02/11 17:05:20;;;;;;;;;;;;;;;;;;;;;
2022/02/11 17:10:28;;;;;;;13.80;6.70;;;;;;;1.15;83.08;100416.79;208050;1317;140928;-86
2022/02/11 17:15:34;;;;;;;12.50;8.00;;;;;;;1.14;83.45;100424.54;207298;1316;140274;-79
2022/02/11 17:20:40;;;;;;;13.70;7.60;;;;;;;1.18;83.42;100432.38;208611;1315;140681;-79
2022/02/11 17:25:43;;;;;;;10.10;6.80;;;;;;;1.18;83.55;100435.39;207897;1316;142168;-69
2022/02/11 17:30:46;;;;;;;10.70;7.70;;;;;;;1.19;83.37;100437.85;207803;1316;141018;-77
2022/02/11 17:36:01;;;;;;;8.00;6.30;;;;;;;1.12;83.17;100445.92;207014;1316;139507;-78
2022/02/11 17:41:09;;;;;;;10.40;6.50;;;;;;;1.03;83.25;100450.23;207185;1316;141638;-71
2022/02/11 17:46:14;;;;;;;52.50;27.20;;;;;;;0.96;83.53;100461.15;207759;1316;150355;-69
2022/02/11 17:51:20;;;;;;;13.80;5.60;;;;;;;0.96;83.62;100470.44;208363;1316;140847;-78
2022/02/11 17:56:23;;;;;;;10.80;6.20;;;;;;;1.02;83.94;100481.23;207152;1315;152906;-74
2022/02/11 18:01:30;;;;;;;9.70;6.40;;;;;;;1.04;83.93;100483.31;207208;1316;139915;-75
2022/02/11 18:06:36;;;;;;;12.20;6.60;;;;;;;1.04;83.83;100488.23;207089;1316;140900;-78
2022/02/11 18:11:45;;;;;;;9.00;6.70;;;;;;;1.05;83.92;100496.24;207835;1316;140998;-76
2022/02/11 18:16:49;;;;;;;16.00;7.10;;;;;;;1.03;83.76;100505.98;207410;1317;141498;-72
2022/02/11 18:21:52;;;;;;;11.00;9.10;;;;;;;1.03;84.13;100513.73;207648;1317;142257;-70
2022/02/11 18:26:55;;;;;;;12.10;8.30;;;;;;;1.05;84.12;100511.58;209259;1318;141617;-71
2022/02/11 18:32:00;;;;;;;9.00;7.50;;;;;;;1.02;83.75;100522.88;208683;1316;140545;-67
2022/02/11 18:37:03;;;;;;;16.10;8.80;;;;;;;0.98;83.94;100523.83;208423;1317;139968;-77
2022/02/11 18:42:06;;;;;;;8.80;5.10;;;;;;;1.03;84.11;100529.15;208355;1316;141651;-71
2022/02/11 18:47:08;;;;;;;15.10;10.20;;;;;;;1.08;83.96;100532.02;207423;1316;140916;-77
2022/02/11 18:52:13;;;;;;;17.50;10.80;;;;;;;1.12;84.44;100537.83;208079;1315;141678;-71
2022/02/11 18:57:17;;;;;;;15.20;10.80;;;;;;;1.18;84.45;100543.02;209009;1313;142305;-68
2022/02/11 19:02:21;;;;;;;17.20;12.60;;;;;;;1.22;84.54;100545.23;207003;1317;1352168;-81
2022/02/11 19:07:43;;;;;;;24.10;14.70;;;;;;;1.23;84.44;100554.59;209061;1317;142560;-82
2022/02/11 19:12:48;;;;;;;20.50;12.30;;;;;;;1.27;84.23;100562.56;207607;1316;141467;-84
2022/02/11 19:18:00;;;;;;;17.30;12.40;;;;;;;1.28;84.25;100570.64;208886;1315;141594;-88
2022/02/11 19:23:03;;;;;;;15.30;10.80;;;;;;;1.31;84.27;100570.56;208110;1316;142158;-77
2022/02/11 19:28:11;;;;;;;16.90;11.10;;;;;;;1.31;84.60;100576.73;207254;1316;140124;-79
2022/02/11 19:33:14;;;;;;;24.60;11.60;;;;;;;1.27;84.42;100581.83;207320;1316;140718;-84
2022/02/11 19:38:19;;;;;;;21.00;13.40;;;;;;;1.25;84.62;100583.29;207777;1316;140811;-73
2022/02/11 19:43:23;;;;;;;19.90;13.40;;;;;;;1.24;84.53;100587.58;207222;1317;140509;-70
2022/02/11 19:48:26;;;;;;;22.50;13.00;;;;;;;1.26;84.69;100589.11;207890;1318;140251;-80
2022/02/11 19:53:30;;;;;;;18.70;13.50;;;;;;;1.31;84.83;100592.60;207871;1317;140810;-72
2022/02/11 19:58:33;;;;;;;19.50;12.70;;;;;;;1.34;85.06;100592.13;207090;1316;140380;-77
2022/02/11 20:03:41;;;;;;;17.60;10.30;;;;;;;1.27;84.44;100600.38;207460;1316;141222;-79
2022/02/11 20:08:47;;;;;;;21.60;13.20;;;;;;;1.20;84.99;100612.13;207914;1316;141136;-78
2022/02/11 20:13:55;;;;;;;23.80;12.40;;;;;;;1.17;84.95;100619.96;207246;1317;140108;-72
2022/02/11 20:18:58;;;;;;;23.00;12.40;;;;;;;1.20;85.07;100621.30;208428;1317;140331;-74
2022/02/11 20:24:22;;;;;;;20.80;11.40;;;;;;;1.20;84.75;100623.56;206994;1317;141512;-67
2022/02/11 20:29:32;;;;;;;20.70;12.30;;;;;;;1.23;85.17;100629.34;208484;1315;141290;-75
2022/02/11 20:34:43;;;;;;;24.80;14.10;;;;;;;1.29;84.93;100634.36;207603;1316;141354;-76
2022/02/11 20:39:50;;;;;;;20.00;12.60;;;;;;;1.37;84.98;100638.78;207993;1317;141205;-73
2022/02/11 20:44:54;;;;;;;17.50;11.30;;;;;;;1.42;85.19;100639.70;207498;1316;231272;-70
2022/02/11 20:55:18;;;;;;;18.00;12.80;;;;;;;1.39;85.02;100648.25;207447;1316;140856;-75
2022/02/11 21:00:27;;;;;;;23.90;15.40;;;;;;;1.36;85.03;100650.96;209815;1319;141336;-76
2022/02/11 21:05:31;;;;;;;28.00;14.40;;;;;;;1.37;85.14;100659.99;209330;1316;141665;-82
2022/02/11 21:10:35;;;;;;;23.30;13.60;;;;;;;1.36;84.93;100668.48;209246;1316;141771;-80
2022/02/11 21:15:42;;;;;;;27.30;14.60;;;;;;;1.40;84.95;100676.16;208228;1317;141602;-75
2022/02/11 21:20:45;;;;;;;21.50;13.00;;;;;;;1.42;84.99;100676.98;209225;1317;142025;-82
2022/02/11 21:25:48;;;;;;;27.20;13.90;;;;;;;1.43;84.98;100679.22;208712;1316;142424;-78
2022/02/11 21:30:51;;;;;;;13.10;9.00;;;;;;;1.44;84.92;100687.29;207386;1316;142560;-78
2022/02/11 21:35:54;;;;;;;18.00;12.10;;;;;;;1.45;85.06;100694.44;207730;1317;141758;-82
2022/02/11 21:40:57;;;;;;;25.30;13.30;;;;;;;1.43;85.46;100696.73;208045;1316;141771;-81
2022/02/11 21:46:01;;;;;;;26.20;15.40;;;;;;;1.42;85.14;100697.31;208166;1317;141589;-76
2022/02/11 21:51:19;;;;;;;27.70;15.30;;;;;;;1.42;85.26;100702.42;207417;1317;141103;-75
2022/02/11 21:56:44;;;;;;;22.70;14.30;;;;;;;1.41;85.35;100706.04;207907;1314;140073;-74
2022/02/11 22:01:50;;;;;;;35.50;16.20;;;;;;;1.40;85.50;100707.70;207541;1316;140756;-75
2022/02/11 22:06:58;;;;;;;23.20;11.80;;;;;;;1.42;85.51;100725.00;207235;1316;140412;-74
2022/02/11 22:12:12;;;;;;;15.50;11.50;;;;;;;1.46;85.53;100731.60;207521;1316;140022;-74
2022/02/11 22:17:18;;;;;;;25.40;14.00;;;;;;;1.43;85.39;100739.77;207053;1317;140182;-73
2022/02/11 22:22:24;;;;;;;27.70;16.30;;;;;;;1.40;85.27;100750.75;207087;1316;140186;-76
2022/02/11 22:27:29;;;;;;;28.30;16.80;;;;;;;1.41;85.60;100761.70;207978;1316;140835;-76
2022/02/11 22:32:35;;;;;;;16.40;12.60;;;;;;;1.42;85.56;100775.27;207589;1317;140066;-74
2022/02/11 22:37:37;;;;;;;11.30;7.40;;;;;;;1.43;85.40;100805.42;207339;1317;142286;-75
2022/02/11 22:42:40;;;;;;;14.80;9.10;;;;;;;1.36;85.12;100803.65;207339;1316;141466;-73
2022/02/11 22:47:43;;;;;;;15.20;10.00;;;;;;;1.31;85.12;100803.48;208458;1317;140550;-73
2022/02/11 22:58:09;;;;;;;13.30;7.90;;;;;;;1.37;85.04;100823.26;207641;1318;142758;-71
2022/02/11 23:03:22;;;;;;;12.30;8.10;;;;;;;1.37;85.24;100828.15;207540;1317;142657;-76
2022/02/11 23:13:57;;;;;;;15.00;8.90;;;;;;;1.25;84.58;100836.09;209178;1313;142000;-78
2022/02/11 23:19:00;;;;;;;10.00;7.60;;;;;;;1.19;84.44;100852.70;208698;1317;141433;-73
2022/02/11 23:24:03;;;;;;;9.00;6.10;;;;;;;1.15;84.34;100870.04;208943;1317;139758;-77
2022/02/11 23:29:06;;;;;;;11.50;6.00;;;;;;;1.12;84.43;100874.52;208512;1317;141032;-82
2022/02/11 23:34:11;;;;;;;8.10;3.50;;;;;;;1.06;84.19;100879.96;208445;1317;140413;-74
2022/02/11 23:39:14;;;;;;;9.40;3.80;;;;;;;0.92;84.26;100883.36;208240;1316;140115;-75
2022/02/11 23:44:20;;;;;;;6.90;3.20;;;;;;;0.78;83.56;100889.28;207924;1316;151965;-68
2022/02/11 23:49:23;;;;;;;10.40;2.60;;;;;;;0.70;84.07;100893.99;207338;1316;142236;-72
2022/02/11 23:54:30;;;;;;;3.10;2.80;;;;;;;0.62;83.87;100905.77;207656;1316;141483;-77
2022/02/11 23:59:32;;;;;;;5.10;2.50;;;;;;;0.54;83.89;100913.02;207027;1317;140990;-76
